Time;durP1;ratioP1;P1;durP2;ratioP2;P2;SDS_P1;SDS_P2;PMS_P1;PMS_P2;Temp;Humidity;BMP_temperature;BMP_pressure;BME280_temperature;BME280_humidity;BME280_pressure;Samples;Min_cycle;Max_cycle;Signal;HPM_P1;HPM_P2
2023/04/25 09:33:38;;;;;;;;;11.75;10.75;;;;;-145.45;100.00;57426.63;6245040;22;45762;-72
2023/04/25 09:36:08;;;;;;;;;12.50;9.00;;;;;-145.45;100.00;57426.63;6277687;22;45279;-73
2023/04/25 09:38:42;;;;;;;;;14.50;11.25;;;;;-145.45;100.00;57426.63;6277362;22;45284;-71
2023/04/25 09:41:09;;;;;;;;;12.00;12.00;;;;;-145.45;100.00;57426.63;6278311;22;45220;-71
2023/04/25 09:43:35;;;;;;;;;26.00;22.25;;;;;-145.45;100.00;57426.63;6277736;22;45351;-71
2023/04/25 09:46:00;;;;;;;;;13.00;12.50;;;;;-145.45;100.00;57426.63;6278021;22;45237;-71
2023/04/25 09:48:27;;;;;;;;;25.50;21.25;;;;;-145.45;100.00;57426.63;6277469;22;45321;-71
2023/04/25 09:51:14;;;;;;;;;15.50;11.50;;;;;-145.45;100.00;57426.63;6278058;22;44893;-71
2023/04/25 09:53:42;;;;;;;;;12.00;12.00;;;;;-145.45;100.00;57426.63;6278038;22;45301;-72
2023/04/25 09:56:10;;;;;;;;;15.50;13.50;;;;;-145.45;100.00;57426.63;6278136;22;45423;-71
2023/04/25 09:58:36;;;;;;;;;14.25;9.00;;;;;-145.45;100.00;57426.63;6278016;22;45210;-70
2023/04/25 10:01:04;;;;;;;;;13.00;10.50;;;;;-145.45;100.00;57426.63;6278038;22;45646;-70
2023/04/25 10:03:32;;;;;;;;;14.00;12.25;;;;;-145.45;100.00;57426.63;6248823;22;47585;-71
2023/04/25 10:06:00;;;;;;;;;18.50;15.25;;;;;-145.45;100.00;57426.63;6277653;22;45446;-71
2023/04/25 10:08:31;;;;;;;;;16.50;15.00;;;;;-145.45;100.00;57426.63;6277665;22;45205;-71
2023/04/25 10:11:00;;;;;;;;;13.50;12.75;;;;;-145.45;100.00;57426.63;6277955;22;45217;-70
2023/04/25 10:13:25;;;;;;;;;12.75;11.50;;;;;-145.45;100.00;57426.63;6277441;22;46362;-72
2023/04/25 10:15:52;;;;;;;;;13.50;9.00;;;;;-145.45;100.00;57426.63;6278071;22;45237;-72
2023/04/25 10:18:19;;;;;;;;;16.00;13.00;;;;;-145.45;100.00;57426.63;6278120;22;45237;-71
2023/04/25 10:20:45;;;;;;;;;8.75;7.25;;;;;-145.45;100.00;57426.63;6278185;22;45474;-71
2023/04/25 10:23:13;;;;;;;;;12.00;10.00;;;;;-145.45;100.00;57426.63;6250250;22;46044;-71
2023/04/25 10:25:40;;;;;;;;;11.75;10.25;;;;;-145.45;100.00;57426.63;6277839;22;45255;-71
2023/04/25 10:28:05;;;;;;;;;3.50;3.50;;;;;-145.45;100.00;57426.63;6250503;22;45332;-71
2023/04/25 10:30:31;;;;;;;;;12.25;7.00;;;;;-145.45;100.00;57426.63;6278296;22;45351;-74
2023/04/25 10:32:59;;;;;;;;;9.75;7.50;;;;;-145.45;100.00;57426.63;6277131;22;45260;-73
2023/04/25 10:35:26;;;;;;;;;13.75;6.75;;;;;-145.45;100.00;57426.63;6278134;22;45089;-73
2023/04/25 10:37:59;;;;;;;;;5.75;5.75;;;;;-145.45;100.00;57426.63;6249902;22;45284;-72
2023/04/25 10:40:25;;;;;;;;;7.00;7.00;;;;;-145.45;100.00;57426.63;6278176;22;45347;-73
2023/04/25 10:42:55;;;;;;;;;6.50;6.50;;;;;-145.45;100.00;57426.63;6278131;22;46252;-74
2023/04/25 10:45:22;;;;;;;;;9.00;8.00;;;;;-145.45;100.00;57426.63;6277435;22;45456;-73
2023/04/25 10:47:47;;;;;;;;;7.75;7.25;;;;;-145.45;100.00;57426.63;6250309;22;45355;-73
2023/04/25 10:50:18;;;;;;;;;7.75;5.75;;;;;-145.45;100.00;57426.63;6277681;22;45232;-74
2023/04/25 10:52:44;;;;;;;;;42.00;36.00;;;;;-145.45;100.00;57426.63;6278267;22;45684;-74
2023/04/25 10:55:10;;;;;;;;;6.75;6.75;;;;;-145.45;100.00;57426.63;6278452;22;45256;-74
2023/04/25 10:57:43;;;;;;;;;12.75;9.50;;;;;-145.45;100.00;57426.63;6278146;22;45236;-77
2023/04/25 11:00:12;;;;;;;;;29.75;27.75;;;;;-145.45;100.00;57426.63;6275472;22;45375;-75
2023/04/25 11:02:42;;;;;;;;;17.50;15.50;;;;;-145.45;100.00;57426.63;6249066;22;46413;-75
2023/04/25 11:05:09;;;;;;;;;20.75;18.50;;;;;-145.45;100.00;57426.63;6277526;22;45295;-76
2023/04/25 11:07:38;;;;;;;;;15.75;13.75;;;;;-145.45;100.00;57426.63;6278068;22;45366;-76
2023/04/25 11:10:05;;;;;;;;;10.25;8.00;;;;;-145.45;100.00;57426.63;6277469;22;45328;-72
2023/04/25 11:12:32;;;;;;;;;23.00;17.25;;;;;-145.45;100.00;57426.63;6277448;22;45260;-76
2023/04/25 11:15:07;;;;;;;;;16.50;15.75;;;;;-145.45;100.00;57426.63;6277944;22;45280;-74
2023/04/25 11:17:32;;;;;;;;;15.75;9.75;;;;;-145.45;100.00;57426.63;6276664;22;45343;-72
2023/04/25 11:19:58;;;;;;;;;12.00;11.75;;;;;-145.45;100.00;57426.63;6277264;22;45007;-73
2023/04/25 11:22:24;;;;;;;;;8.50;7.00;;;;;-145.45;100.00;57426.63;6249435;22;46973;-73
2023/04/25 11:24:50;;;;;;;;;7.25;6.75;;;;;-145.45;100.00;57426.63;6278102;22;45328;-73
2023/04/25 11:27:16;;;;;;;;;8.00;7.75;;;;;-145.45;100.00;57426.63;6277315;22;45351;-72
2023/04/25 11:29:42;;;;;;;;;6.50;6.25;;;;;-145.45;100.00;57426.63;6277879;22;45284;-73
2023/04/25 11:32:07;;;;;;;;;8.00;6.50;;;;;-145.45;100.00;57426.63;6276785;22;45817;-73
2023/04/25 11:34:34;;;;;;;;;10.75;7.25;;;;;-145.45;100.00;57426.63;6277637;22;45252;-72
2023/04/25 11:37:01;;;;;;;;;10.25;7.00;;;;;-145.45;100.00;57426.63;6278086;22;45287;-72
2023/04/25 11:39:27;;;;;;;;;12.50;9.25;;;;;-145.45;100.00;57426.63;6249956;22;45508;-73
2023/04/25 11:41:53;;;;;;;;;5.25;3.75;;;;;-145.45;100.00;57426.63;6277357;22;45291;-73
2023/04/25 11:44:20;;;;;;;;;7.00;6.00;;;;;-145.45;100.00;57426.63;6277806;22;45228;-73
2023/04/25 11:46:46;;;;;;;;;7.50;6.50;;;;;-145.45;100.00;57426.63;6277675;22;45298;-72
2023/04/25 11:49:12;;;;;;;;;10.00;7.75;;;;;-145.45;100.00;57426.63;6277285;22;45317;-73
2023/04/25 11:51:43;;;;;;;;;9.25;6.75;;;;;-145.45;100.00;57426.63;6277429;22;45258;-72
2023/04/25 11:54:08;;;;;;;;;10.25;9.00;;;;;-145.45;100.00;57426.63;6249601;22;45320;-75
2023/04/25 11:56:33;;;;;;;;;12.00;7.00;;;;;-145.45;100.00;57426.63;6277180;22;45334;-73
2023/04/25 11:59:04;;;;;;;;;10.00;6.75;;;;;-145.45;100.00;57426.63;6250067;22;45280;-74
2023/04/25 12:01:34;;;;;;;;;8.75;7.50;;;;;-145.45;100.00;57426.63;6277868;22;45157;-73
2023/04/25 12:04:32;;;;;;;;;7.75;7.00;;;;;-145.45;100.00;57426.63;6277385;22;45218;-74
2023/04/25 12:06:59;;;;;;;;;7.00;7.00;;;;;-145.45;100.00;57426.63;6209537;22;45132;-74
2023/04/25 12:09:33;;;;;;;;;7.75;7.75;;;;;-145.45;100.00;57426.63;6277597;22;45210;-73
2023/04/25 12:12:02;;;;;;;;;9.75;8.25;;;;;-145.45;100.00;57426.63;6277452;22;45254;-74
2023/04/25 12:14:32;;;;;;;;;9.25;6.00;;;;;-145.45;100.00;57426.63;6277581;22;45315;-74
2023/04/25 12:16:59;;;;;;;;;8.00;8.00;;;;;-145.45;100.00;57426.63;6277533;22;45231;-74
2023/04/25 12:19:26;;;;;;;;;6.75;6.75;;;;;-145.45;100.00;57426.63;6277372;22;45454;-74
2023/04/25 12:21:52;;;;;;;;;11.25;7.75;;;;;-145.45;100.00;57426.63;6277394;22;46333;-75
2023/04/25 12:24:23;;;;;;;;;10.25;8.00;;;;;-145.45;100.00;57426.63;6250010;22;45370;-74
2023/04/25 12:26:51;;;;;;;;;10.50;8.50;;;;;-145.45;100.00;57426.63;6277046;22;45145;-75
2023/04/25 12:29:22;;;;;;;;;9.25;8.25;;;;;-145.45;100.00;57426.63;6277485;22;45328;-74
2023/04/25 12:31:48;;;;;;;;;7.00;7.00;;;;;-145.45;100.00;57426.63;6224063;22;45617;-74
2023/04/25 12:34:13;;;;;;;;;9.00;7.33;;;;;-145.45;100.00;57426.63;6274376;22;45232;-74
2023/04/25 12:36:39;;;;;;;;;8.33;7.00;;;;;-145.45;100.00;57426.63;6277769;22;45160;-74
2023/04/25 12:39:04;;;;;;;;;8.33;7.67;;;;;-145.45;100.00;57426.63;6276444;22;45406;-74
2023/04/25 12:41:30;;;;;;;;;10.00;9.00;;;;;-145.45;100.00;57426.63;6277433;22;45556;-74
2023/04/25 12:43:56;;;;;;;;;8.00;8.00;;;;;-145.45;100.00;57426.63;6277938;22;45230;-74
2023/04/25 12:46:22;;;;;;;;;12.33;7.00;;;;;-145.45;100.00;57426.63;6277019;22;47209;-75
2023/04/25 12:48:48;;;;;;;;;9.33;7.00;;;;;-145.45;100.00;57426.63;6249331;22;45401;-74
2023/04/25 12:51:13;;;;;;;;;9.00;7.00;;;;;-145.45;100.00;57426.63;6277544;22;45244;-75
2023/04/25 12:53:40;;;;;;;;;8.33;8.00;;;;;-145.45;100.00;57426.63;6277510;22;45274;-74
2023/04/25 12:56:07;;;;;;;;;8.33;8.00;;;;;-145.45;100.00;57426.63;6277681;22;45272;-76
2023/04/25 12:58:33;;;;;;;;;13.33;6.33;;;;;-145.45;100.00;57426.63;6249453;22;45865;-74
2023/04/25 13:00:58;;;;;;;;;14.33;9.33;;;;;-145.45;100.00;57426.63;6277376;22;45581;-73
2023/04/25 13:03:25;;;;;;;;;6.00;6.00;;;;;-145.45;100.00;57426.63;6248303;22;45253;-71
2023/04/25 13:05:52;;;;;;;;;5.33;5.33;;;;;-145.45;100.00;57426.63;6277725;22;45264;-71
2023/04/25 13:08:20;;;;;;;;;5.00;5.00;;;;;-145.45;100.00;57426.63;6275498;22;45381;-71
2023/04/25 13:10:45;;;;;;;;;10.67;8.33;;;;;-145.45;100.00;57426.63;6248976;22;47558;-71
2023/04/25 13:13:11;;;;;;;;;6.00;6.00;;;;;-145.45;100.00;57426.63;6276960;22;46937;-72
2023/04/25 13:15:36;;;;;;;;;5.00;5.00;;;;;-145.45;100.00;57426.63;6277789;22;45638;-71
2023/04/25 13:18:04;;;;;;;;;8.00;5.33;;;;;-145.45;100.00;57426.63;6249035;22;45209;-72
2023/04/25 13:20:29;;;;;;;;;5.00;5.00;;;;;-145.45;100.00;57426.63;6248697;22;45628;-71
2023/04/25 13:22:55;;;;;;;;;5.33;4.00;;;;;-145.45;100.00;57426.63;6276922;22;45271;-71
2023/04/25 13:25:21;;;;;;;;;5.67;5.00;;;;;-145.45;100.00;57426.63;6277428;22;45090;-70
2023/04/25 13:27:47;;;;;;;;;9.67;7.00;;;;;-145.45;100.00;57426.63;6275224;22;45248;-71
2023/04/25 13:30:12;;;;;;;;;7.00;5.33;;;;;-145.45;100.00;57426.63;6277039;22;46068;-71
2023/04/25 13:32:38;;;;;;;;;6.33;6.33;;;;;-145.45;100.00;57426.63;6248152;22;45346;-71
2023/04/25 13:35:05;;;;;;;;;5.33;5.33;;;;;-145.45;100.00;57426.63;6249776;22;45427;-72
2023/04/25 13:37:32;;;;;;;;;7.33;6.33;;;;;-145.45;100.00;57426.63;6275594;22;45288;-71
2023/04/25 13:40:00;;;;;;;;;8.00;5.67;;;;;-145.45;100.00;57426.63;6276954;22;46082;-71
2023/04/25 13:42:26;;;;;;;;;8.33;6.00;;;;;-145.45;100.00;57426.63;6274215;22;45335;-71
2023/04/25 13:44:51;;;;;;;;;7.00;5.00;;;;;-145.45;100.00;57426.63;6249272;22;45252;-71
2023/04/25 13:47:16;;;;;;;;;6.67;5.00;;;;;-145.45;100.00;57426.63;6277782;22;45448;-71
2023/04/25 13:49:42;;;;;;;;;4.67;4.33;;;;;-145.45;100.00;57426.63;6278719;22;45322;-71
2023/04/25 13:52:07;;;;;;;;;5.33;4.33;;;;;-145.45;100.00;57426.63;6249546;22;51087;-71
2023/04/25 13:54:33;;;;;;;;;5.00;5.00;;;;;-145.45;100.00;57426.63;6278448;22;45248;-71
2023/04/25 13:56:59;;;;;;;;;4.33;4.33;;;;;-145.45;100.00;57426.63;6250373;22;45277;-71
2023/04/25 13:59:25;;;;;;;;;10.00;6.00;;;;;-145.45;100.00;57426.63;6278584;22;45320;-71
2023/04/25 14:01:51;;;;;;;;;8.00;5.67;;;;;-145.45;100.00;57426.63;6278184;22;45322;-71
2023/04/25 14:04:16;;;;;;;;;6.67;5.00;;;;;-145.45;100.00;57426.63;6278658;22;45260;-72
2023/04/25 14:06:42;;;;;;;;;9.00;6.00;;;;;-145.45;100.00;57426.63;6278405;22;45187;-72
2023/04/25 14:09:10;;;;;;;;;8.33;4.67;;;;;-145.45;100.00;57426.63;6277310;22;45294;-71
2023/04/25 14:11:36;;;;;;;;;7.00;6.00;;;;;-145.45;100.00;57426.63;6278429;22;45242;-71
2023/04/25 14:14:01;;;;;;;;;7.00;7.00;;;;;-145.45;100.00;57426.63;6278599;22;45236;-71
2023/04/25 14:16:27;;;;;;;;;8.00;6.00;;;;;-145.45;100.00;57426.63;6278558;22;45079;-71
2023/04/25 14:18:54;;;;;;;;;4.00;4.00;;;;;-145.45;100.00;57426.63;6278032;22;46493;-71
2023/04/25 14:21:20;;;;;;;;;9.33;6.00;;;;;-145.45;100.00;57426.63;6250402;22;45324;-72
2023/04/25 14:23:46;;;;;;;;;9.00;6.67;;;;;-145.45;100.00;57426.63;6278106;22;45284;-71
2023/04/25 14:26:12;;;;;;;;;7.67;5.00;;;;;-145.45;100.00;57426.63;6250146;22;45721;-71
2023/04/25 14:28:38;;;;;;;;;5.33;4.67;;;;;-145.45;100.00;57426.63;6277704;22;45433;-71
2023/04/25 14:31:03;;;;;;;;;9.33;6.00;;;;;-145.45;100.00;57426.63;6278206;22;45169;-72
2023/04/25 14:33:29;;;;;;;;;6.00;5.00;;;;;-145.45;100.00;57426.63;6276749;22;45202;-72
2023/04/25 14:35:55;;;;;;;;;7.33;6.67;;;;;-145.45;100.00;57426.63;6278367;22;45153;-71
2023/04/25 14:38:23;;;;;;;;;6.00;6.00;;;;;-145.45;100.00;57426.63;6249677;22;47876;-72
2023/04/25 14:40:49;;;;;;;;;5.33;5.00;;;;;-145.45;100.00;57426.63;6278042;22;45347;-71
2023/04/25 14:43:14;;;;;;;;;4.67;4.67;;;;;-145.45;100.00;57426.63;6278161;22;45245;-70
2023/04/25 14:45:39;;;;;;;;;7.00;5.00;;;;;-145.45;100.00;57426.63;6278067;22;45236;-71
2023/04/25 14:48:05;;;;;;;;;5.67;4.67;;;;;-145.45;100.00;57426.63;6277505;22;45401;-71
2023/04/25 14:50:30;;;;;;;;;6.00;6.00;;;;;-145.45;100.00;57426.63;6278339;22;45238;-71
2023/04/25 14:52:58;;;;;;;;;11.00;8.67;;;;;-145.45;100.00;57426.63;6278317;22;45287;-72
2023/04/25 14:55:24;;;;;;;;;18.67;13.00;;;;;-145.45;100.00;57426.63;6278025;22;45216;-71
2023/04/25 14:57:50;;;;;;;;;6.00;4.67;;;;;-145.45;100.00;57426.63;6277347;22;45379;-71
2023/04/25 15:00:16;;;;;;;;;6.67;5.00;;;;;-145.45;100.00;57426.63;6278232;22;45094;-71
2023/04/25 15:02:41;;;;;;;;;8.33;6.00;;;;;-145.45;100.00;57426.63;6249372;22;45616;-71
2023/04/25 15:05:08;;;;;;;;;9.33;5.33;;;;;-145.45;100.00;57426.63;6278073;22;45460;-72
2023/04/25 15:07:34;;;;;;;;;10.00;6.00;;;;;-145.45;100.00;57426.63;6248730;22;45630;-72
2023/04/25 15:10:00;;;;;;;;;5.00;5.00;;;;;-145.45;100.00;57426.63;6277009;22;45340;-71
2023/04/25 15:12:28;;;;;;;;;8.33;6.33;;;;;-145.45;100.00;57426.63;6277845;22;45249;-71
2023/04/25 15:14:53;;;;;;;;;6.00;5.67;;;;;-145.45;100.00;57426.63;6277928;22;45119;-72
2023/04/25 15:17:19;;;;;;;;;5.67;5.67;;;;;-145.45;100.00;57426.63;6277136;22;46411;-71
2023/04/25 15:19:45;;;;;;;;;6.33;6.00;;;;;-145.45;100.00;57426.63;6277937;22;45305;-72
2023/04/25 15:22:10;;;;;;;;;7.00;7.00;;;;;-145.45;100.00;57426.63;6278084;22;45245;-72
2023/04/25 15:24:35;;;;;;;;;8.67;7.67;;;;;-145.45;100.00;57426.63;6249972;22;45781;-72
2023/04/25 15:27:01;;;;;;;;;6.00;5.67;;;;;-145.45;100.00;57426.63;6277487;22;45304;-71
2023/04/25 15:29:27;;;;;;;;;6.33;6.33;;;;;-145.45;100.00;57426.63;6276310;22;45157;-72
2023/04/25 15:31:52;;;;;;;;;6.00;5.00;;;;;-145.45;100.00;57426.63;6276184;22;45307;-72
2023/04/25 15:34:17;;;;;;;;;13.00;8.50;;;;;-145.45;100.00;57426.63;6248790;22;47321;-72
2023/04/25 15:36:43;;;;;;;;;6.00;6.00;;;;;-145.45;100.00;57426.63;6276447;22;45491;-71
2023/04/25 15:39:08;;;;;;;;;8.33;6.67;;;;;-145.45;100.00;57426.63;6277348;22;45353;-72
2023/04/25 15:41:36;;;;;;;;;6.00;4.67;;;;;-145.45;100.00;57426.63;6248834;22;45207;-72
2023/04/25 15:44:01;;;;;;;;;4.33;4.00;;;;;-145.45;100.00;57426.63;6248857;22;46011;-72
2023/04/25 15:46:27;;;;;;;;;7.67;5.00;;;;;-145.45;100.00;57426.63;6277342;22;46160;-72
2023/04/25 15:48:52;;;;;;;;;7.67;7.67;;;;;-145.45;100.00;57426.63;6249049;22;45301;-72
2023/04/25 15:51:17;;;;;;;;;6.00;5.00;;;;;-145.45;100.00;57426.63;6277522;22;50899;-72
2023/04/25 15:53:43;;;;;;;;;3.00;3.00;;;;;-145.45;100.00;57426.63;6274856;22;45121;-72
2023/04/25 15:56:08;;;;;;;;;14.33;13.67;;;;;-145.45;100.00;57426.63;6275345;22;45640;-73
2023/04/25 15:58:35;;;;;;;;;8.33;6.00;;;;;-145.45;100.00;57426.63;6276672;22;45277;-72
2023/04/25 16:01:00;;;;;;;;;7.67;6.67;;;;;-145.45;100.00;57426.63;6276974;22;45205;-72
2023/04/25 16:03:26;;;;;;;;;11.33;6.00;;;;;-145.45;100.00;57426.63;6248242;22;45735;-72
2023/04/25 16:05:52;;;;;;;;;10.00;5.67;;;;;-145.45;100.00;57426.63;6277499;22;45335;-73
2023/04/25 16:08:17;;;;;;;;;11.00;10.00;;;;;-145.45;100.00;57426.63;6276892;22;45248;-72
2023/04/25 16:10:43;;;;;;;;;8.33;8.33;;;;;-145.45;100.00;57426.63;6277531;22;45247;-73
2023/04/25 16:13:08;;;;;;;;;9.67;8.00;;;;;-145.45;100.00;57426.63;6277156;22;45415;-73
2023/04/25 16:15:33;;;;;;;;;9.33;5.00;;;;;-145.45;100.00;57426.63;6277345;22;46456;-72
2023/04/25 16:17:59;;;;;;;;;8.00;6.67;;;;;-145.45;100.00;57426.63;6248648;22;45245;-73
2023/04/25 16:20:24;;;;;;;;;7.00;7.00;;;;;-145.45;100.00;57426.63;6277825;22;45259;-73
2023/04/25 16:22:49;;;;;;;;;5.00;4.67;;;;;-145.45;100.00;57426.63;6276989;22;45324;-72
2023/04/25 16:25:15;;;;;;;;;5.00;5.00;;;;;-145.45;100.00;57426.63;6277505;22;46461;-73
2023/04/25 16:27:40;;;;;;;;;12.33;7.67;;;;;-145.45;100.00;57426.63;6276506;22;45322;-72
2023/04/25 16:30:07;;;;;;;;;20.25;18.50;;;;;-145.45;100.00;57426.63;6277849;22;45332;-72
2023/04/25 16:32:33;;;;;;;;;54.75;44.00;;;;;-145.45;100.00;57426.63;6275886;22;47233;-73
2023/04/25 16:34:58;;;;;;;;;14.67;12.67;;;;;-145.45;100.00;57426.63;6277085;22;45175;-73
2023/04/25 16:37:24;;;;;;;;;6.33;4.00;;;;;-145.45;100.00;57426.63;6277289;22;45382;-72
2023/04/25 16:39:50;;;;;;;;;32.00;27.50;;;;;-145.45;100.00;57426.63;6277537;22;45260;-72
2023/04/25 16:42:15;;;;;;;;;15.50;12.00;;;;;-145.45;100.00;57426.63;6277132;22;45220;-72
2023/04/25 16:44:40;;;;;;;;;46.75;34.75;;;;;-145.45;100.00;57426.63;6277230;22;45300;-72
2023/04/25 16:47:06;;;;;;;;;55.50;41.75;;;;;-145.45;100.00;57426.63;6276454;22;45276;-72
2023/04/25 16:49:31;;;;;;;;;90.25;76.50;;;;;-145.45;100.00;57426.63;6249390;22;45345;-72
2023/04/25 16:51:57;;;;;;;;;75.75;59.50;;;;;-145.45;100.00;57426.63;6248794;22;46514;-72
2023/04/25 16:54:24;;;;;;;;;102.00;88.33;;;;;-145.45;100.00;57426.63;6249364;22;45299;-72
2023/04/25 16:56:50;;;;;;;;;67.00;51.00;;;;;-145.45;100.00;57426.63;6276806;22;45358;-72
2023/04/25 16:59:15;;;;;;;;;143.00;128.00;;;;;-145.45;100.00;57426.63;6277395;22;45190;-72
2023/04/25 17:01:41;;;;;;;;;70.25;53.50;;;;;-145.45;100.00;57426.63;6276157;22;45527;-73
2023/04/25 17:04:06;;;;;;;;;16.75;16.75;;;;;-145.45;100.00;57426.63;6276703;22;46750;-72
2023/04/25 17:06:32;;;;;;;;;25.50;23.50;;;;;-145.45;100.00;57426.63;6223099;22;45350;-73
2023/04/25 17:08:57;;;;;;;;;7.00;7.00;;;;;-145.45;100.00;57426.63;6277224;22;45229;-73
2023/04/25 17:11:22;;;;;;;;;10.00;9.67;;;;;-145.45;100.00;57426.63;6274902;22;45241;-72
2023/04/25 17:13:48;;;;;;;;;10.00;8.00;;;;;-145.45;100.00;57426.63;6276670;22;46577;-72
2023/04/25 17:16:15;;;;;;;;;81.75;77.00;;;;;-145.45;100.00;57426.63;6276923;22;45186;-72
2023/04/25 17:18:42;;;;;;;;;12.00;10.33;;;;;-145.45;100.00;57426.63;6276832;22;45228;-72
2023/04/25 17:21:08;;;;;;;;;11.00;7.67;;;;;-145.45;100.00;57426.63;6277475;22;45439;-72
2023/04/25 17:23:34;;;;;;;;;11.67;8.67;;;;;-145.45;100.00;57426.63;6277581;22;45482;-72
2023/04/25 17:25:59;;;;;;;;;21.50;21.00;;;;;-145.45;100.00;57426.63;6278169;22;45245;-72
2023/04/25 17:28:25;;;;;;;;;12.00;8.67;;;;;-145.45;100.00;57426.63;6250535;22;45335;-73
2023/04/25 17:30:50;;;;;;;;;8.67;6.33;;;;;-145.45;100.00;57426.63;6278180;22;45228;-72
2023/04/25 17:33:16;;;;;;;;;12.00;11.25;;;;;-145.45;100.00;57426.63;6277507;22;45335;-72
2023/04/25 17:35:41;;;;;;;;;27.25;23.50;;;;;-145.45;100.00;57426.63;6277754;22;45199;-72
2023/04/25 17:38:07;;;;;;;;;27.75;24.00;;;;;-145.45;100.00;57426.63;6278364;22;45270;-72
2023/04/25 17:40:32;;;;;;;;;30.00;23.25;;;;;-145.45;100.00;57426.63;6250451;22;46023;-73
2023/04/25 17:42:58;;;;;;;;;23.75;21.75;;;;;-145.45;100.00;57426.63;6278110;22;45362;-72
2023/04/25 17:45:23;;;;;;;;;79.75;66.00;;;;;-145.45;100.00;57426.63;6250136;22;49122;-72
2023/04/25 17:47:48;;;;;;;;;7.50;6.50;;;;;-145.45;100.00;57426.63;6278025;22;45222;-73
2023/04/25 17:50:15;;;;;;;;;32.75;31.75;;;;;-145.45;100.00;57426.63;6278220;22;45406;-72
2023/04/25 17:52:43;;;;;;;;;40.25;34.50;;;;;-145.45;100.00;57426.63;6250161;22;46416;-72
2023/04/25 17:55:09;;;;;;;;;29.00;27.50;;;;;-145.45;100.00;57426.63;6277893;22;45247;-72
2023/04/25 17:57:34;;;;;;;;;47.75;41.25;;;;;-145.45;100.00;57426.63;6250351;22;45319;-72
2023/04/25 18:00:00;;;;;;;;;27.25;25.75;;;;;-145.45;100.00;57426.63;6278065;22;45205;-72
2023/04/25 18:02:26;;;;;;;;;26.75;24.50;;;;;-145.45;100.00;57426.63;6277525;22;45497;-73
2023/04/25 18:04:51;;;;;;;;;25.50;22.00;;;;;-145.45;100.00;57426.63;6278212;22;45372;-72
2023/04/25 18:07:16;;;;;;;;;37.00;32.00;;;;;-145.45;100.00;57426.63;6278240;22;45244;-72
2023/04/25 18:09:42;;;;;;;;;25.50;25.50;;;;;-145.45;100.00;57426.63;6249870;22;45707;-72
2023/04/25 18:12:07;;;;;;;;;36.50;31.75;;;;;-145.45;100.00;57426.63;6277872;22;45343;-72
2023/04/25 18:14:35;;;;;;;;;17.75;14.75;;;;;-145.45;100.00;57426.63;6278206;22;45335;-72
2023/04/25 18:17:00;;;;;;;;;20.75;18.50;;;;;-145.45;100.00;57426.63;6277608;22;45166;-71
2023/04/25 18:19:26;;;;;;;;;9.25;9.00;;;;;-145.45;100.00;57426.63;6277745;22;45409;-72
2023/04/25 18:21:57;;;;;;;;;8.25;6.50;;;;;-145.45;100.00;57426.63;6277501;22;49918;-71
2023/04/25 18:24:25;;;;;;;;;12.25;9.50;;;;;-145.45;100.00;57426.63;6278132;22;45217;-71
2023/04/25 18:26:53;;;;;;;;;11.75;11.75;;;;;-145.45;100.00;57426.63;6249900;22;45299;-71
2023/04/25 18:29:19;;;;;;;;;70.00;54.00;;;;;-145.45;100.00;57426.63;6277416;22;45224;-72
2023/04/25 18:31:44;;;;;;;;;28.75;26.00;;;;;-145.45;100.00;57426.63;6277117;22;45260;-72
2023/04/25 18:34:10;;;;;;;;;20.00;19.00;;;;;-145.45;100.00;57426.63;6248900;22;45221;-72
2023/04/25 18:36:36;;;;;;;;;7.50;7.50;;;;;-145.45;100.00;57426.63;6277763;22;45224;-72
2023/04/25 18:39:05;;;;;;;;;58.75;48.25;;;;;-145.45;100.00;57426.63;6249966;22;46878;-72
2023/04/25 18:41:36;;;;;;;;;32.25;28.25;;;;;-145.45;100.00;57426.63;6277613;22;46613;-73
2023/04/25 18:44:03;;;;;;;;;9.75;8.25;;;;;-145.45;100.00;57426.63;6277529;22;45299;-72
2023/04/25 18:46:33;;;;;;;;;12.50;12.50;;;;;-145.45;100.00;57426.63;6277659;22;45419;-72
2023/04/25 18:48:59;;;;;;;;;13.25;13.25;;;;;-145.45;100.00;57426.63;6277657;22;45465;-73
2023/04/25 18:51:28;;;;;;;;;6.25;6.25;;;;;-145.45;100.00;57426.63;6249826;22;47106;-72
2023/04/25 18:53:54;;;;;;;;;12.50;8.50;;;;;-145.45;100.00;57426.63;6249644;22;45484;-72
2023/04/25 18:56:21;;;;;;;;;13.25;7.00;;;;;-145.45;100.00;57426.63;6278142;22;45174;-73
2023/04/25 18:58:48;;;;;;;;;8.50;7.00;;;;;-145.45;100.00;57426.63;6277417;22;45219;-72
2023/04/25 19:01:14;;;;;;;;;31.50;22.00;;;;;-145.45;100.00;57426.63;6277583;22;46540;-73
2023/04/25 19:03:39;;;;;;;;;50.00;41.50;;;;;-145.45;100.00;57426.63;6249397;22;45257;-73
2023/04/25 19:06:05;;;;;;;;;16.75;13.25;;;;;-145.45;100.00;57426.63;6278084;22;45272;-73
2023/04/25 19:08:31;;;;;;;;;14.25;13.25;;;;;-145.45;100.00;57426.63;6277494;22;45339;-73
2023/04/25 19:10:56;;;;;;;;;10.50;6.00;;;;;-145.45;100.00;57426.63;6277545;22;45291;-73
2023/04/25 19:13:22;;;;;;;;;14.50;8.50;;;;;-145.45;100.00;57426.63;6277578;22;45320;-73
2023/04/25 19:15:47;;;;;;;;;11.25;11.25;;;;;-145.45;100.00;57426.63;6278050;22;45384;-73
2023/04/25 19:18:16;;;;;;;;;11.75;8.00;;;;;-145.45;100.00;57426.63;6277010;22;45290;-73
2023/04/25 19:20:42;;;;;;;;;12.00;9.25;;;;;-145.45;100.00;57426.63;6277721;22;45657;-73
2023/04/25 19:23:09;;;;;;;;;13.50;9.00;;;;;-145.45;100.00;57426.63;6249461;22;45215;-72
2023/04/25 19:25:35;;;;;;;;;15.50;12.00;;;;;-145.45;100.00;57426.63;6277635;22;45280;-73
2023/04/25 19:28:00;;;;;;;;;11.25;7.50;;;;;-145.45;100.00;57426.63;6277318;22;45303;-72
2023/04/25 19:30:30;;;;;;;;;14.50;14.25;;;;;-145.45;100.00;57426.63;6249508;22;46831;-72
2023/04/25 19:32:56;;;;;;;;;9.75;9.50;;;;;-145.45;100.00;57426.63;6248950;22;45127;-73
2023/04/25 19:35:22;;;;;;;;;9.50;8.50;;;;;-145.45;100.00;57426.63;6277785;22;45218;-72
2023/04/25 19:37:48;;;;;;;;;11.50;10.00;;;;;-145.45;100.00;57426.63;6249994;22;46929;-72
2023/04/25 19:40:15;;;;;;;;;10.75;10.00;;;;;-145.45;100.00;57426.63;6249715;22;47862;-73
2023/04/25 19:42:40;;;;;;;;;13.50;13.00;;;;;-145.45;100.00;57426.63;6249161;22;45277;-73
2023/04/25 19:45:06;;;;;;;;;19.50;17.25;;;;;-145.45;100.00;57426.63;6277144;22;45331;-73
2023/04/25 19:47:32;;;;;;;;;12.00;10.75;;;;;-145.45;100.00;57426.63;6277322;22;45917;-72
2023/04/25 19:49:57;;;;;;;;;13.00;12.25;;;;;-145.45;100.00;57426.63;6277862;22;46109;-73
2023/04/25 19:52:22;;;;;;;;;20.25;17.50;;;;;-145.45;100.00;57426.63;6277662;22;45332;-73
2023/04/25 19:54:48;;;;;;;;;14.50;12.75;;;;;-145.45;100.00;57426.63;6278094;22;45332;-73
2023/04/25 19:57:13;;;;;;;;;16.75;14.50;;;;;-145.45;100.00;57426.63;6249620;22;45506;-73
2023/04/25 19:59:39;;;;;;;;;16.25;13.75;;;;;-145.45;100.00;57426.63;6277847;22;45315;-73
2023/04/25 20:02:07;;;;;;;;;15.00;13.75;;;;;-145.45;100.00;57426.63;6277139;22;45192;-73
2023/04/25 20:04:33;;;;;;;;;19.25;13.00;;;;;-145.45;100.00;57426.63;6277747;22;45237;-72
2023/04/25 20:07:00;;;;;;;;;15.25;13.00;;;;;-145.45;100.00;57426.63;6277128;22;45569;-73
2023/04/25 20:09:25;;;;;;;;;17.25;15.00;;;;;-145.45;100.00;57426.63;6277346;22;46242;-72
2023/04/25 20:11:51;;;;;;;;;15.00;13.00;;;;;-145.45;100.00;57426.63;6248442;22;47193;-73
2023/04/25 20:14:17;;;;;;;;;15.50;14.25;;;;;-145.45;100.00;57426.63;6277520;22;45346;-72
2023/04/25 20:16:42;;;;;;;;;12.75;11.50;;;;;-145.45;100.00;57426.63;6248565;22;45372;-73
2023/04/25 20:19:07;;;;;;;;;18.50;15.25;;;;;-145.45;100.00;57426.63;6248469;22;47686;-73
2023/04/25 20:21:33;;;;;;;;;12.75;10.25;;;;;-145.45;100.00;57426.63;6277371;22;45200;-73
2023/04/25 20:24:02;;;;;;;;;17.25;13.75;;;;;-145.45;100.00;57426.63;6250163;22;45236;-72
2023/04/25 20:26:28;;;;;;;;;20.00;18.75;;;;;-145.45;100.00;57426.63;6277365;22;45474;-73
2023/04/25 20:28:53;;;;;;;;;19.50;18.25;;;;;-145.45;100.00;57426.63;6276858;22;45297;-73
2023/04/25 20:31:19;;;;;;;;;18.50;18.25;;;;;-145.45;100.00;57426.63;6277557;22;45087;-73